Time,TemperatureF,DewpointF,PressureIn,WindDirection,WindDirectionDegrees,WindSpeedMPH,WindSpeedGustMPH,Humidity,HourlyPrecipIn,Conditions,Clouds,dailyrainin,SoftwareType,DateUTC
2013-05-15 07:23:00,47.8,42.2,30.28,SE,135,0.0,0.0,81,0.00,,,0.00,WUHU216HW,2013-05-15 11:23:00,
2013-05-15 07:34:00,48.0,42.4,30.28,SE,135,0.0,0.0,81,0.00,,,0.00,WUHU216HW,2013-05-15 11:34:00,
2013-05-15 07:35:00,48.0,42.4,30.28,SE,135,0.0,0.0,81,0.00,,,0.00,WUHU216HW,2013-05-15 11:35:00,
2013-05-15 07:40:00,48.3,43.0,30.28,SE,135,0.0,0.0,82,0.00,,,0.00,WUHU216HW,2013-05-15 11:40:00,
2013-05-15 07:45:00,48.5,43.2,30.28,SE,135,0.0,0.0,82,0.00,,,0.00,WUHU216HW,2013-05-15 11:45:00,
2013-05-15 07:50:00,48.7,43.7,30.28,SE,135,0.0,0.0,83,0.00,,,0.00,WUHU216HW,2013-05-15 11:50:00,
2013-05-15 07:55:00,48.9,43.9,30.28,SE,135,0.0,0.0,83,0.00,,,0.00,WUHU216HW,2013-05-15 11:55:00,
2013-05-15 08:01:00,49.2,44.0,30.28,SE,135,0.0,0.0,83,0.00,,,0.00,WUHU216HW,2013-05-15 12:01:00,
2013-05-15 08:06:00,49.2,44.2,30.28,SE,135,0.0,0.0,83,0.00,,,0.00,WUHU216HW,2013-05-15 12:06:00,
2013-05-15 08:11:00,49.6,44.6,30.28,SE,135,0.0,0.0,83,0.00,,,0.00,WUHU216HW,2013-05-15 12:11:00,
2013-05-15 08:16:00,50.1,45.1,30.29,SE,135,0.0,0.0,83,0.00,,,0.00,WUHU216HW,2013-05-15 12:16:00,
2013-05-15 08:21:00,50.5,45.8,30.29,SE,135,0.0,0.0,84,0.00,,,0.00,WUHU216HW,2013-05-15 12:21:00,
2013-05-15 08:26:00,50.9,46.1,30.29,SE,135,0.0,0.0,84,0.00,,,0.00,WUHU216HW,2013-05-15 12:26:00,
2013-05-15 08:31:00,51.4,46.9,30.29,SE,135,0.0,0.0,84,0.00,,,0.00,WUHU216HW,2013-05-15 12:31:00,
2013-05-15 08:36:00,52.3,47.9,30.29,SE,135,0.0,0.0,85,0.00,,,0.00,WUHU216HW,2013-05-15 12:36:00,
2013-05-15 08:41:00,52.8,48.4,30.29,SE,135,0.0,0.0,85,0.00,,,0.00,WUHU216HW,2013-05-15 12:41:00,
2013-05-15 08:46:00,53.2,48.8,30.29,SE,135,0.0,0.0,85,0.00,,,0.00,WUHU216HW,2013-05-15 12:46:00,
2013-05-15 08:52:00,53.7,49.0,30.29,SE,135,0.0,0.0,84,0.00,,,0.00,WUHU216HW,2013-05-15 12:52:00,
2013-05-15 08:57:00,54.3,49.5,30.29,SE,135,0.0,0.0,84,0.00,,,0.00,WUHU216HW,2013-05-15 12:57:00,
2013-05-15 09:02:00,55.0,49.8,30.29,SE,135,0.0,0.0,84,0.00,,,0.00,WUHU216HW,2013-05-15 13:02:00,
2013-05-15 09:07:00,55.4,50.7,30.29,SE,135,0.0,0.0,84,0.00,,,0.00,WUHU216HW,2013-05-15 13:07:00,
2013-05-15 09:12:00,56.1,51.2,30.29,SE,135,0.0,0.0,84,0.00,,,0.00,WUHU216HW,2013-05-15 13:12:00,
2013-05-15 09:17:00,56.4,51.6,30.29,SE,135,0.0,0.0,84,0.00,,,0.00,WUHU216HW,2013-05-15 13:17:00,
2013-05-15 09:22:00,57.0,52.1,30.29,SE,135,0.0,0.0,84,0.00,,,0.00,WUHU216HW,2013-05-15 13:22:00,
2013-05-15 09:28:00,57.5,52.9,30.29,SE,135,0.0,0.0,84,0.00,,,0.00,WUHU216HW,2013-05-15 13:28:00,
2013-05-15 09:33:00,58.6,53.4,30.29,SE,135,0.0,0.0,83,0.00,,,0.00,WUHU216HW,2013-05-15 13:33:00,
2013-05-15 09:38:00,59.3,54.2,30.29,SE,135,0.0,0.0,83,0.00,,,0.00,WUHU216HW,2013-05-15 13:38:00,
2013-05-15 09:43:00,60.0,54.9,30.29,SE,135,0.0,0.0,83,0.00,,,0.00,WUHU216HW,2013-05-15 13:43:00,
2013-05-15 09:48:00,60.6,55.1,30.29,SE,135,0.0,0.0,82,0.00,,,0.00,WUHU216HW,2013-05-15 13:48:00,
2013-05-15 09:53:00,61.7,55.8,30.29,SE,135,0.0,0.0,81,0.00,,,0.00,WUHU216HW,2013-05-15 13:53:00,
2013-05-15 09:58:00,62.4,56.1,30.29,SE,135,0.0,0.0,80,0.00,,,0.00,WUHU216HW,2013-05-15 13:58:00,
2013-05-15 10:03:00,62.9,55.9,30.29,SE,135,0.0,0.0,78,0.00,,,0.00,WUHU216HW,2013-05-15 14:03:00,
2013-05-15 10:08:00,63.8,56.1,30.29,WSW,248,0.0,0.0,76,0.00,,,0.00,WUHU216HW,2013-05-15 14:08:00,
2013-05-15 10:13:00,64.2,56.1,30.29,WSW,248,0.0,0.0,75,0.00,,,0.00,WUHU216HW,2013-05-15 14:13:00,
2013-05-15 10:18:00,64.9,56.4,30.29,West,270,0.0,0.0,74,0.00,,,0.00,WUHU216HW,2013-05-15 14:18:00,
2013-05-15 10:24:00,65.6,56.3,30.29,West,270,0.0,0.0,72,0.00,,,0.00,WUHU216HW,2013-05-15 14:24:00,
2013-05-15 10:29:00,66.3,56.6,30.28,WSW,248,0.0,0.0,71,0.00,,,0.00,WUHU216HW,2013-05-15 14:29:00,
2013-05-15 10:34:00,66.9,56.4,30.29,NNW,338,0.0,0.0,69,0.00,,,0.00,WUHU216HW,2013-05-15 14:34:00,
2013-05-15 10:39:00,67.6,57.1,30.29,NNW,338,0.0,0.0,69,0.00,,,0.00,WUHU216HW,2013-05-15 14:39:00,
2013-05-15 10:44:00,67.8,56.6,30.29,WNW,293,0.0,0.0,68,0.00,,,0.00,WUHU216HW,2013-05-15 14:44:00,
2013-05-15 10:49:00,68.5,56.2,30.28,NW,315,0.0,0.0,65,0.00,,,0.00,WUHU216HW,2013-05-15 14:49:00,
2013-05-15 10:54:00,69.0,56.7,30.29,WNW,293,0.0,0.0,65,0.00,,,0.00,WUHU216HW,2013-05-15 14:54:00,
2013-05-15 10:59:00,69.8,57.0,30.28,WNW,293,0.0,0.0,64,0.00,,,0.00,WUHU216HW,2013-05-15 14:59:00,
2013-05-15 11:04:00,70.3,56.7,30.28,NW,315,0.0,0.0,62,0.00,,,0.00,WUHU216HW,2013-05-15 15:04:00,
2013-05-15 11:09:00,70.7,57.0,30.28,NNW,338,0.0,0.0,62,0.00,,,0.00,WUHU216HW,2013-05-15 15:09:00,
2013-05-15 11:14:00,71.2,57.1,30.28,West,270,0.0,0.0,61,0.00,,,0.00,WUHU216HW,2013-05-15 15:14:00,
2013-05-15 11:19:00,71.9,58.2,30.28,WSW,248,0.0,0.0,62,0.00,,,0.00,WUHU216HW,2013-05-15 15:19:00,
2013-05-15 11:24:00,72.3,57.6,30.28,NW,315,0.0,0.0,60,0.00,,,0.00,WUHU216HW,2013-05-15 15:24:00,
2013-05-15 11:30:00,73.0,58.3,30.28,NW,315,0.0,0.0,60,0.00,,,0.00,WUHU216HW,2013-05-15 15:30:00,
2013-05-15 11:35:00,73.9,58.6,30.28,WSW,248,0.0,0.0,59,0.00,,,0.00,WUHU216HW,2013-05-15 15:35:00,
2013-05-15 11:40:00,74.8,59.0,30.28,NW,315,0.0,0.0,58,0.00,,,0.00,WUHU216HW,2013-05-15 15:40:00,
2013-05-15 11:45:00,75.3,59.0,30.28,NW,315,0.0,0.0,57,0.00,,,0.00,WUHU216HW,2013-05-15 15:45:00,
2013-05-15 11:50:00,75.9,59.5,30.27,WNW,293,0.0,0.0,57,0.00,,,0.00,WUHU216HW,2013-05-15 15:50:00,
2013-05-15 11:55:00,76.6,58.7,30.28,NNW,338,0.0,0.0,54,0.00,,,0.00,WUHU216HW,2013-05-15 15:55:00,
2013-05-15 12:00:00,76.8,59.3,30.28,WSW,248,0.0,0.0,55,0.00,,,0.00,WUHU216HW,2013-05-15 16:00:00,
2013-05-15 12:06:00,77.1,59.1,30.27,WNW,293,0.0,0.0,54,0.00,,,0.00,WUHU216HW,2013-05-15 16:06:00,
2013-05-15 12:11:00,77.7,59.1,30.27,West,270,0.0,0.0,53,0.00,,,0.00,WUHU216HW,2013-05-15 16:11:00,
2013-05-15 12:16:00,78.2,58.6,30.27,NW,315,0.0,0.0,51,0.00,,,0.00,WUHU216HW,2013-05-15 16:16:00,
2013-05-15 12:21:00,78.6,58.9,30.26,NNW,338,0.0,0.0,51,0.00,,,0.00,WUHU216HW,2013-05-15 16:21:00,
2013-05-15 12:26:00,78.6,58.9,30.26,West,270,0.0,0.0,51,0.00,,,0.00,WUHU216HW,2013-05-15 16:26:00,
2013-05-15 12:31:00,79.3,60.1,30.26,WNW,293,0.0,0.0,52,0.00,,,0.00,WUHU216HW,2013-05-15 16:31:00,
2013-05-15 12:37:00,79.7,60.4,30.26,West,270,0.0,0.0,52,0.00,,,0.00,WUHU216HW,2013-05-15 16:37:00,
2013-05-15 12:42:00,80.2,59.9,30.25,NW,315,0.0,0.0,50,0.00,,,0.00,WUHU216HW,2013-05-15 16:42:00,
2013-05-15 12:47:00,80.6,60.9,30.25,NNW,338,0.0,0.0,51,0.00,,,0.00,WUHU216HW,2013-05-15 16:47:00,
2013-05-15 12:57:00,81.3,60.9,30.25,WSW,248,0.0,0.0,50,0.00,,,0.00,WUHU216HW,2013-05-15 16:57:00,
2013-05-15 13:02:00,81.6,60.6,30.25,West,270,0.0,0.0,49,0.00,,,0.00,WUHU216HW,2013-05-15 17:02:00,
2013-05-15 13:07:00,82.0,60.3,30.24,NW,315,0.0,0.0,48,0.00,,,0.00,WUHU216HW,2013-05-15 17:07:00,
2013-05-15 13:12:00,82.2,61.1,30.24,NW,315,0.0,0.0,49,0.00,,,0.00,WUHU216HW,2013-05-15 17:12:00,
2013-05-15 13:17:00,82.5,60.2,30.24,WNW,293,0.0,0.0,47,0.00,,,0.00,WUHU216HW,2013-05-15 17:17:00,
2013-05-15 13:22:00,82.5,59.5,30.24,NNW,338,0.0,0.0,46,0.00,,,0.00,WUHU216HW,2013-05-15 17:22:00,
2013-05-15 13:28:00,82.5,59.7,30.23,WSW,248,0.0,0.0,46,0.00,,,0.00,WUHU216HW,2013-05-15 17:28:00,
2013-05-15 13:33:00,82.9,59.3,30.23,NNW,338,0.0,0.0,45,0.00,,,0.00,WUHU216HW,2013-05-15 17:33:00,
2013-05-15 13:38:00,82.5,58.3,30.23,NNW,338,0.0,0.0,44,0.00,,,0.00,WUHU216HW,2013-05-15 17:38:00,
2013-05-15 13:43:00,82.7,59.1,30.23,West,270,0.0,0.0,45,0.00,,,0.00,WUHU216HW,2013-05-15 17:43:00,
2013-05-15 13:49:00,83.3,60.2,30.22,WSW,248,0.0,0.0,46,0.00,,,0.00,WUHU216HW,2013-05-15 17:49:00,
2013-05-15 13:54:00,83.6,60.0,30.22,WSW,248,0.0,0.0,45,0.00,,,0.00,WUHU216HW,2013-05-15 17:54:00,
2013-05-15 13:59:00,83.8,59.5,30.23,WSW,248,0.0,0.0,44,0.00,,,0.00,WUHU216HW,2013-05-15 17:59:00,
2013-05-15 14:04:00,84.2,61.1,30.22,WSW,248,0.0,0.0,46,0.00,,,0.00,WUHU216HW,2013-05-15 18:04:00,
2013-05-15 14:09:00,84.7,60.3,30.22,WSW,248,0.0,0.0,44,0.00,,,0.00,WUHU216HW,2013-05-15 18:09:00,
2013-05-15 14:14:00,84.9,60.5,30.22,WSW,248,0.0,0.0,44,0.00,,,0.00,WUHU216HW,2013-05-15 18:14:00,
2013-05-15 14:19:00,85.8,61.3,30.22,WSW,248,0.0,0.0,44,0.00,,,0.00,WUHU216HW,2013-05-15 18:19:00,
2013-05-15 14:24:00,86.1,61.6,30.22,WSW,248,0.0,0.0,44,0.00,,,0.00,WUHU216HW,2013-05-15 18:24:00,
2013-05-15 14:29:00,86.5,62.0,30.21,WSW,248,0.0,0.0,44,0.00,,,0.00,WUHU216HW,2013-05-15 18:29:00,
2013-05-15 14:34:00,86.9,61.8,30.21,WSW,248,0.0,0.0,43,0.00,,,0.00,WUHU216HW,2013-05-15 18:34:00,
2013-05-15 14:39:00,87.0,61.8,30.21,WSW,248,0.0,0.0,43,0.00,,,0.00,WUHU216HW,2013-05-15 18:39:00,
2013-05-15 14:44:00,87.4,61.5,30.21,WSW,248,0.0,0.0,42,0.00,,,0.00,WUHU216HW,2013-05-15 18:44:00,
2013-05-15 14:49:00,87.4,61.5,30.21,WSW,248,0.0,0.0,42,0.00,,,0.00,WUHU216HW,2013-05-15 18:49:00,
2013-05-15 14:54:00,87.6,61.7,30.21,WSW,248,0.0,0.0,42,0.00,,,0.00,WUHU216HW,2013-05-15 18:54:00,
2013-05-15 14:59:00,87.9,61.3,30.21,WSW,248,0.0,0.0,41,0.00,,,0.00,WUHU216HW,2013-05-15 18:59:00,
2013-05-15 15:04:00,88.1,60.9,30.21,WSW,248,0.0,0.0,40,0.00,,,0.00,WUHU216HW,2013-05-15 19:04:00,
2013-05-15 15:09:00,88.1,60.0,30.21,WSW,248,0.0,0.0,39,0.00,,,0.00,WUHU216HW,2013-05-15 19:09:00,
2013-05-15 15:15:00,87.6,59.6,30.20,WSW,248,0.0,0.0,39,0.00,,,0.00,WUHU216HW,2013-05-15 19:15:00,
2013-05-15 15:20:00,87.9,61.3,30.20,WSW,248,0.0,0.0,41,0.00,,,0.00,WUHU216HW,2013-05-15 19:20:00,
2013-05-15 15:25:00,88.3,61.0,30.20,WSW,248,0.0,0.0,40,0.00,,,0.00,WUHU216HW,2013-05-15 19:25:00,
2013-05-15 15:30:00,88.8,59.8,30.20,WSW,248,0.0,0.0,38,0.00,,,0.00,WUHU216HW,2013-05-15 19:30:00,
2013-05-15 15:35:00,88.8,59.8,30.19,WSW,248,0.0,0.0,38,0.00,,,0.00,WUHU216HW,2013-05-15 19:35:00,
2013-05-15 15:40:00,88.8,59.8,30.19,WSW,248,0.0,0.0,38,0.00,,,0.00,WUHU216HW,2013-05-15 19:40:00,
2013-05-15 15:45:00,89.2,61.1,30.19,WSW,248,0.0,0.0,39,0.00,,,0.00,WUHU216HW,2013-05-15 19:45:00,
2013-05-15 15:50:00,89.4,59.5,30.19,WSW,248,0.0,0.0,37,0.00,,,0.00,WUHU216HW,2013-05-15 19:50:00,
2013-05-15 15:55:00,89.7,59.8,30.19,WSW,248,0.0,0.0,37,0.00,,,0.00,WUHU216HW,2013-05-15 19:55:00,
2013-05-15 16:00:00,89.6,58.8,30.19,WSW,248,0.0,0.0,36,0.00,,,0.00,WUHU216HW,2013-05-15 20:00:00,
2013-05-15 16:05:00,89.2,57.7,30.18,WSW,248,0.0,0.0,35,0.00,,,0.00,WUHU216HW,2013-05-15 20:05:00,
2013-05-15 16:10:00,89.2,56.8,30.18,WSW,248,0.0,0.0,35,0.00,,,0.00,WUHU216HW,2013-05-15 20:10:00,
2013-05-15 16:15:00,88.7,57.3,30.18,WSW,248,0.0,0.0,35,0.00,,,0.00,WUHU216HW,2013-05-15 20:15:00,
2013-05-15 16:20:00,88.5,57.9,30.18,WSW,248,0.0,0.0,36,0.00,,,0.00,WUHU216HW,2013-05-15 20:20:00,
2013-05-15 16:25:00,88.8,58.2,30.18,WSW,248,0.0,0.0,36,0.00,,,0.00,WUHU216HW,2013-05-15 20:25:00,
2013-05-15 16:30:00,88.8,57.4,30.18,WSW,248,0.0,0.0,35,0.00,,,0.00,WUHU216HW,2013-05-15 20:30:00,
2013-05-15 16:35:00,88.8,57.4,30.18,WSW,248,0.0,0.0,35,0.00,,,0.00,WUHU216HW,2013-05-15 20:35:00,
2013-05-15 16:40:00,88.8,58.2,30.18,WSW,248,0.0,0.0,36,0.00,,,0.00,WUHU216HW,2013-05-15 20:40:00,
2013-05-15 16:45:00,88.7,57.3,30.18,WSW,248,0.0,0.0,35,0.00,,,0.00,WUHU216HW,2013-05-15 20:45:00,
2013-05-15 16:51:00,88.7,57.3,30.17,WSW,248,0.0,0.0,35,0.00,,,0.00,WUHU216HW,2013-05-15 20:51:00,
2013-05-15 16:56:00,88.8,58.2,30.18,WSW,248,0.0,0.0,36,0.00,,,0.00,WUHU216HW,2013-05-15 20:56:00,
2013-05-15 17:01:00,88.8,57.4,30.18,WSW,248,0.0,0.0,35,0.00,,,0.00,WUHU216HW,2013-05-15 21:01:00,
2013-05-15 17:06:00,89.2,57.7,30.17,WSW,248,0.0,0.0,36,0.00,,,0.00,WUHU216HW,2013-05-15 21:06:00,
2013-05-15 17:11:00,89.4,57.9,30.17,WSW,248,0.0,0.0,35,0.00,,,0.00,WUHU216HW,2013-05-15 21:11:00,
2013-05-15 17:16:00,89.7,58.2,30.17,WSW,248,0.0,0.0,35,0.00,,,0.00,WUHU216HW,2013-05-15 21:16:00,
2013-05-15 17:21:00,90.1,57.0,30.17,WSW,248,0.0,0.0,33,0.00,,,0.00,WUHU216HW,2013-05-15 21:21:00,
2013-05-15 17:26:00,89.9,57.6,30.17,WSW,248,0.0,0.0,34,0.00,,,0.00,WUHU216HW,2013-05-15 21:26:00,
2013-05-15 17:31:00,90.1,57.7,30.17,WSW,248,0.0,0.0,34,0.00,,,0.00,WUHU216HW,2013-05-15 21:31:00,
2013-05-15 17:36:00,90.3,57.9,30.16,WSW,248,0.0,0.0,34,0.00,,,0.00,WUHU216HW,2013-05-15 21:36:00,
2013-05-15 17:41:00,90.1,57.0,30.16,WSW,248,0.0,0.0,33,0.00,,,0.00,WUHU216HW,2013-05-15 21:41:00,
2013-05-15 17:46:00,90.3,58.7,30.17,WSW,248,0.0,0.0,35,0.00,,,0.00,WUHU216HW,2013-05-15 21:46:00,
2013-05-15 17:51:00,90.3,58.1,30.16,WSW,248,0.0,0.0,34,0.00,,,0.00,WUHU216HW,2013-05-15 21:51:00,
2013-05-15 17:56:00,90.1,57.0,30.16,WSW,248,0.0,0.0,33,0.00,,,0.00,WUHU216HW,2013-05-15 21:56:00,
2013-05-15 18:01:00,89.7,56.6,30.16,WSW,248,0.0,0.0,33,0.00,,,0.00,WUHU216HW,2013-05-15 22:01:00,
2013-05-15 18:06:00,89.4,57.9,30.16,WSW,248,0.0,0.0,35,0.00,,,0.00,WUHU216HW,2013-05-15 22:06:00,
2013-05-15 18:11:00,89.4,56.3,30.16,WSW,248,0.0,0.0,33,0.00,,,0.00,WUHU216HW,2013-05-15 22:11:00,
2013-05-15 18:17:00,88.8,58.2,30.16,WSW,248,0.0,0.0,36,0.00,,,0.00,WUHU216HW,2013-05-15 22:17:00,
2013-05-15 18:22:00,88.5,56.3,30.16,WSW,248,0.0,0.0,34,0.00,,,0.00,WUHU216HW,2013-05-15 22:22:00,
2013-05-15 18:27:00,87.6,56.2,30.16,WSW,248,0.0,0.0,35,0.00,,,0.00,WUHU216HW,2013-05-15 22:27:00,
2013-05-15 18:32:00,86.5,55.4,30.16,WSW,248,0.0,0.0,35,0.00,,,0.00,WUHU216HW,2013-05-15 22:32:00,
2013-05-15 18:37:00,85.8,54.8,30.16,WSW,248,0.0,0.0,35,0.00,,,0.00,WUHU216HW,2013-05-15 22:37:00,
2013-05-15 18:42:00,84.9,54.8,30.16,WSW,248,0.0,0.0,36,0.00,,,0.00,WUHU216HW,2013-05-15 22:42:00,
2013-05-15 18:47:00,84.0,54.8,30.16,WSW,248,0.0,0.0,37,0.00,,,0.00,WUHU216HW,2013-05-15 22:47:00,
2013-05-15 18:52:00,83.4,54.3,30.16,WSW,248,0.0,0.0,37,0.00,,,0.00,WUHU216HW,2013-05-15 22:52:00,
2013-05-15 18:57:00,82.9,54.5,30.16,WSW,248,0.0,0.0,38,0.00,,,0.00,WUHU216HW,2013-05-15 22:57:00,
2013-05-15 19:02:00,82.2,54.0,30.16,WSW,248,0.0,0.0,38,0.00,,,0.00,WUHU216HW,2013-05-15 23:02:00,
2013-05-15 19:07:00,81.5,54.1,30.16,WSW,248,0.0,0.0,39,0.00,,,0.00,WUHU216HW,2013-05-15 23:07:00,
2013-05-15 19:12:00,81.1,53.8,30.16,West,270,0.0,0.0,39,0.00,,,0.00,WUHU216HW,2013-05-15 23:12:00,
2013-05-15 19:18:00,80.6,54.1,30.16,NW,315,0.0,0.0,40,0.00,,,0.00,WUHU216HW,2013-05-15 23:18:00,
2013-05-15 19:23:00,80.2,53.8,30.16,North,0,0.0,0.0,40,0.00,,,0.00,WUHU216HW,2013-05-15 23:23:00,
2013-05-15 19:28:00,79.8,54.1,30.16,North,0,0.0,0.0,41,0.00,,,0.00,WUHU216HW,2013-05-15 23:28:00,
2013-05-15 19:33:00,79.5,53.7,30.16,NNW,338,0.0,0.0,41,0.00,,,0.00,WUHU216HW,2013-05-15 23:33:00,
2013-05-15 19:38:00,78.9,53.2,30.16,North,0,0.0,0.0,41,0.00,,,0.00,WUHU216HW,2013-05-15 23:38:00,
2013-05-15 19:43:00,78.6,53.5,30.16,NW,315,0.0,0.0,42,0.00,,,0.00,WUHU216HW,2013-05-15 23:43:00,
2013-05-15 19:49:00,78.4,53.4,30.17,NW,315,0.0,0.0,42,0.00,,,0.00,WUHU216HW,2013-05-15 23:49:00,
2013-05-15 19:54:00,78.0,53.7,30.17,NW,315,0.0,0.0,43,0.00,,,0.00,WUHU216HW,2013-05-15 23:54:00,
2013-05-15 19:59:00,77.9,52.9,30.17,WNW,293,0.0,0.0,42,0.00,,,0.00,WUHU216HW,2013-05-15 23:59:00,
2013-05-15 20:04:00,77.5,53.2,30.17,WNW,293,0.0,0.0,43,0.00,,,0.00,WUHU216HW,2013-05-16 00:04:00,
2013-05-15 20:09:00,77.3,53.0,30.17,WNW,293,0.0,0.0,43,0.00,,,0.00,WUHU216HW,2013-05-16 00:09:00,
2013-05-15 20:14:00,77.0,52.7,30.17,WNW,293,0.0,0.0,43,0.00,,,0.00,WUHU216HW,2013-05-16 00:14:00,
2013-05-15 20:19:00,76.4,52.8,30.17,WNW,293,0.0,0.0,44,0.00,,,0.00,WUHU216HW,2013-05-16 00:19:00,
2013-05-15 20:24:00,75.9,52.3,30.17,WNW,293,0.0,0.0,44,0.00,,,0.00,WUHU216HW,2013-05-16 00:24:00,
2013-05-15 20:30:00,75.3,52.5,30.17,WNW,293,0.0,0.0,45,0.00,,,0.00,WUHU216HW,2013-05-16 00:30:00,
2013-05-15 20:35:00,75.0,52.1,30.17,WNW,293,0.0,0.0,45,0.00,,,0.00,WUHU216HW,2013-05-16 00:35:00,
2013-05-15 20:40:00,74.3,51.4,30.17,WNW,293,0.0,0.0,45,0.00,,,0.00,WUHU216HW,2013-05-16 00:40:00,
2013-05-15 20:45:00,73.9,51.7,30.17,WNW,293,0.0,0.0,46,0.00,,,0.00,WUHU216HW,2013-05-16 00:45:00,
2013-05-15 20:50:00,73.2,51.0,30.17,WNW,293,0.0,0.0,46,0.00,,,0.00,WUHU216HW,2013-05-16 00:50:00,
2013-05-15 20:55:00,72.6,51.1,30.17,WNW,293,0.0,0.0,47,0.00,,,0.00,WUHU216HW,2013-05-16 00:55:00,
2013-05-15 21:00:00,72.3,50.8,30.17,WNW,293,0.0,0.0,47,0.00,,,0.00,WUHU216HW,2013-05-16 01:00:00,
2013-05-15 21:05:00,71.7,50.9,30.18,WNW,293,0.0,0.0,48,0.00,,,0.00,WUHU216HW,2013-05-16 01:05:00,
2013-05-15 21:10:00,71.2,51.0,30.18,WNW,293,0.0,0.0,49,0.00,,,0.00,WUHU216HW,2013-05-16 01:10:00,
2013-05-15 21:15:00,70.8,50.7,30.18,West,270,0.0,0.0,49,0.00,,,0.00,WUHU216HW,2013-05-16 01:15:00,
2013-05-15 21:20:00,70.3,50.8,30.18,West,270,0.0,0.0,50,0.00,,,0.00,WUHU216HW,2013-05-16 01:20:00,
2013-05-15 21:25:00,69.9,51.0,30.18,West,270,0.0,0.0,51,0.00,,,0.00,WUHU216HW,2013-05-16 01:25:00,
2013-05-15 21:30:00,69.6,50.6,30.18,West,270,0.0,0.0,51,0.00,,,0.00,WUHU216HW,2013-05-16 01:30:00,
2013-05-15 21:35:00,69.0,50.7,30.18,West,270,0.0,0.0,52,0.00,,,0.00,WUHU216HW,2013-05-16 01:35:00,
2013-05-15 21:40:00,68.7,50.8,30.18,West,270,0.0,0.0,53,0.00,,,0.00,WUHU216HW,2013-05-16 01:40:00,
2013-05-15 21:45:00,68.3,50.5,30.18,West,270,0.0,0.0,53,0.00,,,0.00,WUHU216HW,2013-05-16 01:45:00,
2013-05-15 21:50:00,67.8,50.5,30.18,West,270,0.0,0.0,54,0.00,,,0.00,WUHU216HW,2013-05-16 01:50:00,
2013-05-15 21:55:00,67.6,50.8,30.18,West,270,0.0,0.0,55,0.00,,,0.00,WUHU216HW,2013-05-16 01:55:00,
2013-05-15 22:00:00,67.2,51.0,30.18,West,270,0.0,0.0,55,0.00,,,0.00,WUHU216HW,2013-05-16 02:00:00,
2013-05-15 22:05:00,66.9,50.6,30.18,West,270,0.0,0.0,56,0.00,,,0.00,WUHU216HW,2013-05-16 02:05:00,
2013-05-15 22:10:00,66.7,51.0,30.18,West,270,0.0,0.0,57,0.00,,,0.00,WUHU216HW,2013-05-16 02:10:00,
2013-05-15 22:15:00,66.3,50.6,30.18,West,270,0.0,0.0,57,0.00,,,0.00,WUHU216HW,2013-05-16 02:15:00,
2013-05-15 22:20:00,66.0,50.8,30.18,West,270,0.0,0.0,57,0.00,,,0.00,WUHU216HW,2013-05-16 02:20:00,
2013-05-15 22:25:00,66.0,50.8,30.18,West,270,0.0,0.0,58,0.00,,,0.00,WUHU216HW,2013-05-16 02:25:00,
2013-05-15 22:31:00,65.8,50.6,30.19,West,270,0.0,0.0,58,0.00,,,0.00,WUHU216HW,2013-05-16 02:31:00,
2013-05-15 22:36:00,65.3,50.1,30.19,West,270,0.0,0.0,58,0.00,,,0.00,WUHU216HW,2013-05-16 02:36:00,
2013-05-15 22:41:00,65.1,50.4,30.19,West,270,0.0,0.0,59,0.00,,,0.00,WUHU216HW,2013-05-16 02:41:00,
2013-05-15 22:46:00,64.7,50.2,30.19,West,270,0.0,0.0,59,0.00,,,0.00,WUHU216HW,2013-05-16 02:46:00,
2013-05-15 22:51:00,64.5,49.8,30.19,West,270,0.0,0.0,59,0.00,,,0.00,WUHU216HW,2013-05-16 02:51:00,
2013-05-15 22:56:00,64.2,50.0,30.19,West,270,0.0,0.0,60,0.00,,,0.00,WUHU216HW,2013-05-16 02:56:00,
2013-05-15 23:01:00,64.0,50.0,30.19,West,270,0.0,0.0,60,0.00,,,0.00,WUHU216HW,2013-05-16 03:01:00,
2013-05-15 23:06:00,63.6,49.9,30.19,West,270,0.0,0.0,61,0.00,,,0.00,WUHU216HW,2013-05-16 03:06:00,
2013-05-15 23:11:00,63.5,49.7,30.19,West,270,0.0,0.0,61,0.00,,,0.00,WUHU216HW,2013-05-16 03:11:00,
2013-05-15 23:16:00,63.3,49.6,30.19,West,270,0.0,0.0,61,0.00,,,0.00,WUHU216HW,2013-05-16 03:16:00,
2013-05-15 23:21:00,63.1,49.8,30.19,West,270,0.0,0.0,62,0.00,,,0.00,WUHU216HW,2013-05-16 03:21:00,
2013-05-15 23:26:00,62.7,49.5,30.19,West,270,0.0,0.0,62,0.00,,,0.00,WUHU216HW,2013-05-16 03:26:00,
2013-05-15 23:31:00,62.6,49.3,30.20,West,270,0.0,0.0,62,0.00,,,0.00,WUHU216HW,2013-05-16 03:31:00,
2013-05-15 23:36:00,62.4,49.2,30.20,West,270,0.0,0.0,62,0.00,,,0.00,WUHU216HW,2013-05-16 03:36:00,
2013-05-15 23:41:00,62.2,49.4,30.20,West,270,0.0,0.0,63,0.00,,,0.00,WUHU216HW,2013-05-16 03:41:00,
2013-05-15 23:46:00,61.8,49.1,30.19,West,270,0.0,0.0,63,0.00,,,0.00,WUHU216HW,2013-05-16 03:46:00,
2013-05-15 23:51:00,61.8,49.5,30.20,West,270,0.0,0.0,64,0.00,,,0.00,WUHU216HW,2013-05-16 03:51:00,
2013-05-15 23:56:00,61.5,49.6,30.20,West,270,0.0,0.0,65,0.00,,,0.00,WUHU216HW,2013-05-16 03:56:00,